Observations for CAMBRIDGE, United Kingdom (EGSC)

EGSC 130850Z 12004KT CAVOK 03/M01 Q1018 
EGSC 130820Z 12004KT CAVOK 03/M01 Q1018 
EGSC 130750Z 11005KT CAVOK 03/M01 Q1018 
EGSC 121750Z VRB03KT CAVOK 01/M03 Q1022 
EGSC 121720Z 14004KT CAVOK 02/M02 Q1022 
EGSC 121650Z 15005KT CAVOK 02/M02 Q1022 
EGSC 121620Z 13005KT 110V170 CAVOK 03/M02 Q1022 
EGSC 121550Z 14006KT CAVOK 04/M02 Q1022 
EGSC 121520Z 14007KT CAVOK 05/M01 Q1022 
EGSC 121450Z 15008KT 9999 FEW035 05/M01 Q1022   
EGSC 121420Z 15010KT 9999 FEW035 06/M01 Q1022   
EGSC 121350Z 15010KT 9999 FEW035 06/M01 Q1023   
EGSC 121250Z 16013KT 9999 FEW035 07/M00 Q1023   
EGSC 121220Z 15011KT 9999 FEW035 07/00 Q1023
EGSC 121150Z 15011KT 9999 FEW035 07/00 Q1023
EGSC 121120Z 14009KT 9999 FEW030 07/01 Q1023
EGSC 121050Z 15006KT CAVOK 07/02 Q1024  
EGSC 121020Z 16008KT 9999 FEW035 06/01 Q1024
EGSC 120920Z 13005KT CAVOK 05/02 Q1024  
EGSC 120850Z 14005KT CAVOK 04/01 Q1024  
EGSC 120820Z 14007KT CAVOK 04/02 Q1023